Time;durP1;ratioP1;P1;durP2;ratioP2;P2;SDS_P1;SDS_P2;PMS_P1;PMS_P2;Temp;Humidity;BMP_temperature;BMP_pressure;BME280_temperature;BME280_humidity;BME280_pressure;Samples;Min_cycle;Max_cycle;Signal;HPM_P1;HPM_P2
2023/06/12 00:00:00;;;;;;;4.70;4.23;;;19.50;88.90;;;;;;5015959;28;20541;-88
2023/06/12 00:02:25;;;;;;;6.53;3.63;;;19.50;90.00;;;;;;5005690;28;20492;-89
2023/06/12 00:04:54;;;;;;;7.63;4.07;;;;;;;;;;5018079;28;20194;-87
2023/06/12 00:07:21;;;;;;;6.47;4.67;;;19.30;89.90;;;;;;5002496;28;20175;-88
2023/06/12 00:09:47;;;;;;;7.17;4.73;;;;;;;;;;5016944;28;20445;-87
2023/06/12 00:12:14;;;;;;;4.10;3.70;;;19.30;90.00;;;;;;5019443;28;20464;-88
2023/06/12 00:14:39;;;;;;;11.60;4.03;;;19.30;90.10;;;;;;4998913;28;20472;-89
2023/06/12 00:17:05;;;;;;;5.37;4.33;;;22.00;91.80;;;;;;5007529;28;20428;-87
2023/06/12 00:19:31;;;;;;;6.90;4.23;;;19.30;90.30;;;;;;5009105;28;20198;-88
2023/06/12 00:21:57;;;;;;;4.50;3.80;;;19.20;90.50;;;;;;4999990;28;20205;-89
2023/06/12 00:24:22;;;;;;;5.07;4.43;;;19.20;90.60;;;;;;5018934;28;20516;-88
2023/06/12 00:26:48;;;;;;;5.70;4.07;;;20.00;91.00;;;;;;5017795;28;20787;-88
2023/06/12 00:29:14;;;;;;;5.57;4.37;;;;;;;;;;4998929;28;20567;-87
2023/06/12 00:31:39;;;;;;;5.03;3.70;;;19.10;90.80;;;;;;5019021;28;20201;-87
2023/06/12 00:34:05;;;;;;;6.37;4.10;;;19.10;91.00;;;;;;4998233;28;20449;-87
2023/06/12 00:36:30;;;;;;;4.73;3.80;;;19.10;90.90;;;;;;4997935;28;20186;-87
2023/06/12 00:38:56;;;;;;;5.23;4.60;;;;;;;;;;5000018;28;20234;-87
2023/06/12 00:41:23;;;;;;;8.00;5.00;;;19.10;90.70;;;;;;5001539;28;20251;-88
2023/06/12 00:43:48;;;;;;;5.30;4.53;;;19.10;91.30;;;;;;5016955;28;20437;-86
2023/06/12 00:46:14;;;;;;;8.10;4.33;;;19.00;91.40;;;;;;5003533;28;20977;-88
2023/06/12 00:48:41;;;;;;;5.47;4.00;;;18.80;91.70;;;;;;5003502;28;20186;-89
2023/06/12 00:51:10;;;;;;;4.13;3.73;;;18.80;92.00;;;;;;5015739;28;20503;-88
2023/06/12 00:53:36;;;;;;;5.53;4.37;;;18.70;91.90;;;;;;5018905;28;20804;-88
2023/06/12 00:56:01;;;;;;;5.90;4.20;;;18.70;92.20;;;;;;5002053;28;20437;-86
2023/06/12 00:58:27;;;;;;;6.73;4.00;;;18.70;92.10;;;;;;5006085;28;20342;-88
2023/06/12 01:00:56;;;;;;;6.23;4.93;;;18.60;92.40;;;;;;4999269;28;20193;-86
2023/06/12 01:03:24;;;;;;;6.50;4.40;;;;;;;;;;5002033;28;20440;-87
2023/06/12 01:05:51;;;;;;;6.97;4.67;;;18.20;94.20;;;;;;4998103;28;20426;-87
2023/06/12 01:08:42;;;;;;;5.60;4.60;;;18.20;94.50;;;;;;5001389;28;20457;-86
2023/06/12 01:11:10;;;;;;;7.80;4.60;;;18.20;94.60;;;;;;5003171;28;20804;-88
2023/06/12 01:13:36;;;;;;;6.47;4.60;;;;;;;;;;5003859;28;20526;-89
2023/06/12 01:16:02;;;;;;;5.20;3.90;;;17.80;96.50;;;;;;5004459;28;20520;-87
2023/06/12 01:18:29;;;;;;;9.90;4.93;;;17.90;95.80;;;;;;5022939;28;20441;-88
2023/06/12 01:20:58;;;;;;;6.37;4.20;;;19.60;97.00;;;;;;5023417;28;20455;-87
2023/06/12 01:23:39;;;;;;;5.93;4.13;;;17.90;96.20;;;;;;5009587;28;20433;-88
2023/06/12 01:26:27;;;;;;;3.70;2.93;;;17.90;96.20;;;;;;5015609;28;20440;-89
2023/06/12 01:29:14;;;;;;;5.93;4.30;;;17.90;96.20;;;;;;5001401;28;20889;-88
2023/06/12 01:32:11;;;;;;;5.10;4.60;;;17.80;96.70;;;;;;5004769;28;20453;-88
2023/06/12 01:34:43;;;;;;;5.17;4.00;;;17.50;97.70;;;;;;4998855;28;20444;-87
2023/06/12 01:37:31;;;;;;;5.73;4.10;;;17.30;99.60;;;;;;5001980;28;20450;-89
2023/06/12 01:39:59;;;;;;;6.00;4.60;;;17.30;99.90;;;;;;5001548;28;20457;-87
2023/06/12 01:42:30;;;;;;;5.60;4.30;;;17.20;99.90;;;;;;5018414;28;20938;-88
2023/06/12 01:44:55;;;;;;;5.27;4.20;;;17.10;99.90;;;;;;5018139;28;20480;-88
2023/06/12 01:47:21;;;;;;;7.27;5.47;;;17.10;99.90;;;;;;5004752;28;20457;-88
2023/06/12 01:49:48;;;;;;;7.40;4.63;;;17.00;99.90;;;;;;5003947;28;20217;-86
2023/06/12 01:52:13;;;;;;;7.23;4.90;;;17.00;99.90;;;;;;5003980;28;20441;-90
2023/06/12 01:54:40;;;;;;;5.77;4.03;;;17.00;99.90;;;;;;5005860;28;20449;-90
2023/06/12 01:57:06;;;;;;;5.37;4.20;;;16.80;99.90;;;;;;5014542;28;20179;-91
2023/06/12 01:59:34;;;;;;;6.20;3.90;;;;;;;;;;5016243;28;20458;-89
2023/06/12 02:02:00;;;;;;;6.00;4.43;;;16.70;99.90;;;;;;5002752;28;20461;-89
2023/06/12 02:04:28;;;;;;;5.73;4.53;;;;;;;;;;5002441;28;20540;-90
2023/06/12 02:06:53;;;;;;;5.47;4.50;;;16.50;99.90;;;;;;5018388;28;20418;-88
2023/06/12 02:09:19;;;;;;;8.57;4.57;;;16.40;99.90;;;;;;5017177;28;20524;-89
2023/06/12 02:11:45;;;;;;;4.43;3.73;;;16.00;99.90;;;;;;5001832;28;20175;-89
2023/06/12 02:14:11;;;;;;;5.00;4.10;;;;;;;;;;5005608;28;20182;-89
2023/06/12 02:16:36;;;;;;;6.77;4.03;;;16.00;99.90;;;;;;5028147;28;20173;-88
2023/06/12 02:19:02;;;;;;;5.40;4.07;;;16.00;99.90;;;;;;5003164;28;20432;-88
2023/06/12 02:21:28;;;;;;;7.57;4.37;;;15.80;99.90;;;;;;5006524;28;20609;-88
2023/06/12 02:23:54;;;;;;;5.30;4.33;;;15.70;99.90;;;;;;5003221;28;20174;-89
2023/06/12 02:26:20;;;;;;;6.43;4.90;;;;;;;;;;5003515;28;20182;-89
2023/06/12 02:29:04;;;;;;;8.03;4.90;;;15.40;99.90;;;;;;5017582;28;21048;-89
2023/06/12 02:31:31;;;;;;;6.50;4.13;;;17.90;99.90;;;;;;5002020;28;20459;-88
2023/06/12 02:33:56;;;;;;;6.13;4.50;;;15.30;99.90;;;;;;5022659;28;20425;-87
2023/06/12 02:36:22;;;;;;;4.50;4.00;;;15.20;99.90;;;;;;5021189;28;20918;-90
2023/06/12 02:38:48;;;;;;;4.93;4.20;;;15.10;99.90;;;;;;4996694;28;20270;-89
2023/06/12 02:41:13;;;;;;;6.93;5.10;;;15.00;99.90;;;;;;4997675;28;20201;-89
2023/06/12 02:43:39;;;;;;;4.27;3.83;;;15.00;99.90;;;;;;5000722;28;20479;-89
2023/06/12 02:46:05;;;;;;;9.17;4.40;;;16.40;99.90;;;;;;4998000;28;20257;-89
2023/06/12 02:48:30;;;;;;;4.93;3.60;;;15.10;99.90;;;;;;5015640;28;20593;-90
2023/06/12 02:50:56;;;;;;;9.00;5.20;;;15.00;99.90;;;;;;5000487;28;20540;-88
2023/06/12 02:53:21;;;;;;;5.67;4.13;;;15.10;99.90;;;;;;4991262;28;20186;-89
2023/06/12 02:55:47;;;;;;;5.10;4.37;;;15.00;99.90;;;;;;5003229;28;20201;-88
2023/06/12 02:58:12;;;;;;;5.93;4.60;;;16.00;99.90;;;;;;5002609;28;20205;-89
2023/06/12 03:00:38;;;;;;;6.40;4.60;;;14.80;99.90;;;;;;5001960;28;20198;-88
2023/06/12 03:03:05;;;;;;;6.07;4.03;;;14.80;99.90;;;;;;4998661;28;20198;-87
2023/06/12 03:05:31;;;;;;;7.17;5.37;;;;;;;;;;4996652;28;20193;-87
2023/06/12 03:07:57;;;;;;;5.40;4.47;;;;;;;;;;4998628;28;20430;-87
2023/06/12 03:10:23;;;;;;;5.07;4.40;;;14.60;99.90;;;;;;4997571;28;20488;-87
2023/06/12 03:12:49;;;;;;;6.63;4.87;;;;;;;;;;4995191;28;20182;-87
2023/06/12 03:15:16;;;;;;;4.53;4.10;;;;;;;;;;5017113;28;20225;-90
2023/06/12 03:17:42;;;;;;;12.20;6.03;;;14.60;99.90;;;;;;5016534;28;20433;-89
2023/06/12 03:20:08;;;;;;;7.20;4.90;;;14.50;99.90;;;;;;5012826;28;20460;-88
2023/06/12 03:22:34;;;;;;;5.77;3.90;;;14.60;99.90;;;;;;4996144;28;20270;-87
2023/06/12 03:24:59;;;;;;;5.67;4.20;;;14.50;99.90;;;;;;5012210;28;20465;-87
2023/06/12 03:27:29;;;;;;;6.70;4.67;;;14.60;99.90;;;;;;4998186;28;20174;-87
2023/06/12 03:29:55;;;;;;;6.40;4.33;;;14.50;99.90;;;;;;4998175;28;20221;-88
2023/06/12 03:32:21;;;;;;;8.10;5.40;;;;;;;;;;4995327;28;20438;-88
2023/06/12 03:34:47;;;;;;;6.27;4.67;;;;;;;;;;4995197;28;20278;-88
2023/06/12 03:37:13;;;;;;;8.80;5.30;;;;;;;;;;4995205;28;20433;-89
2023/06/12 03:39:38;;;;;;;5.90;4.33;;;14.50;99.90;;;;;;5000557;28;20452;-90
2023/06/12 03:42:04;;;;;;;6.37;4.10;;;14.60;99.90;;;;;;5001578;28;20540;-88
2023/06/12 03:44:30;;;;;;;5.37;4.87;;;14.70;99.90;;;;;;5004954;28;20623;-88
2023/06/12 03:46:56;;;;;;;5.70;4.40;;;;;;;;;;5019528;28;20512;-89
2023/06/12 03:49:23;;;;;;;5.63;4.73;;;14.80;99.90;;;;;;5021544;28;20202;-88
2023/06/12 03:51:48;;;;;;;5.80;4.23;;;14.80;99.90;;;;;;5014935;28;20439;-89
2023/06/12 03:54:14;;;;;;;9.90;4.80;;;14.90;99.90;;;;;;4999403;28;20457;-89
2023/06/12 03:56:41;;;;;;;7.10;5.73;;;14.90;99.90;;;;;;4998185;28;20217;-89
2023/06/12 03:59:07;;;;;;;6.37;4.50;;;15.00;99.90;;;;;;5001011;28;20189;-89
2023/06/12 04:01:32;;;;;;;5.00;3.70;;;15.00;99.90;;;;;;5028215;28;20544;-89
2023/06/12 04:03:58;;;;;;;6.53;4.37;;;15.10;99.90;;;;;;5013472;28;20174;-89
2023/06/12 04:06:24;;;;;;;5.23;4.30;;;15.40;99.90;;;;;;4993470;28;20178;-90
2023/06/12 04:08:51;;;;;;;4.77;4.30;;;17.10;99.90;;;;;;4993693;28;20194;-89
2023/06/12 04:11:18;;;;;;;8.00;4.37;;;15.70;99.90;;;;;;5002725;28;20456;-89
2023/06/12 04:13:45;;;;;;;6.33;4.10;;;15.60;99.90;;;;;;4999321;28;20433;-88
2023/06/12 04:16:11;;;;;;;6.80;4.80;;;;;;;;;;5017233;28;20441;-89
2023/06/12 04:18:39;;;;;;;6.53;4.43;;;19.10;99.90;;;;;;4998671;28;20421;-88
2023/06/12 04:21:06;;;;;;;5.77;4.37;;;19.30;99.90;;;;;;4999948;28;20441;-90
2023/06/12 04:23:32;;;;;;;5.33;4.10;;;;;;;;;;5001876;28;20429;-90
2023/06/12 04:26:04;;;;;;;4.73;4.30;;;23.70;99.90;;;;;;5002050;28;20439;-90
2023/06/12 04:28:30;;;;;;;5.60;4.40;;;;;;;;;;4994077;28;20424;-89
2023/06/12 04:30:56;;;;;;;5.60;4.90;;;25.40;99.30;;;;;;5017502;28;20981;-90
2023/06/12 04:33:23;;;;;;;6.20;5.40;;;;;;;;;;5000751;28;20429;-88
2023/06/12 04:35:49;;;;;;;4.90;4.40;;;26.90;94.00;;;;;;5004288;28;20179;-88
2023/06/12 04:38:15;;;;;;;6.67;4.87;;;;;;;;;;5023387;28;20981;-88
2023/06/12 04:40:41;;;;;;;6.17;4.57;;;28.40;81.70;;;;;;5000301;23;20719;-90
2023/06/12 04:43:09;;;;;;;9.10;5.43;;;;;;;;;;5007659;28;20562;-89
2023/06/12 04:45:34;;;;;;;5.53;4.97;;;30.00;72.90;;;;;;4977763;28;20440;-90
2023/06/12 04:48:00;;;;;;;5.83;5.27;;;31.00;68.70;;;;;;4986355;28;20441;-89
2023/06/12 04:50:25;;;;;;;7.43;5.80;;;;;;;;;;4973966;28;20202;-88
2023/06/12 04:52:52;;;;;;;6.03;5.47;;;;;;;;;;4980588;28;20818;-88
2023/06/12 04:55:20;;;;;;;5.87;5.33;;;31.00;56.60;;;;;;4961943;28;20448;-88
2023/06/12 04:57:47;;;;;;;7.40;5.00;;;;;;;;;;4965873;28;20535;-89
2023/06/12 05:00:15;;;;;;;6.37;5.27;;;29.80;57.90;;;;;;4971093;28;20458;-88
2023/06/12 05:02:41;;;;;;;6.17;5.57;;;31.10;56.40;;;;;;4992285;28;20531;-89
2023/06/12 05:05:07;;;;;;;5.67;5.17;;;31.50;54.60;;;;;;4993842;28;20435;-89
2023/06/12 05:07:35;;;;;;;7.00;5.80;;;31.70;53.80;;;;;;4983648;28;20523;-88
2023/06/12 05:10:02;;;;;;;5.73;5.20;;;31.90;53.10;;;;;;4993898;28;20513;-89
2023/06/12 05:12:28;;;;;;;4.90;4.50;;;31.70;52.50;;;;;;5000470;28;20538;-89
2023/06/12 05:14:53;;;;;;;6.10;5.43;;;32.40;52.20;;;;;;4980549;28;20466;-89
2023/06/12 05:17:19;;;;;;;6.57;5.50;;;;;;;;;;4983706;28;20304;-90
2023/06/12 05:19:45;;;;;;;6.70;5.90;;;;;;;;;;4985512;28;20245;-89
2023/06/12 05:22:11;;;;;;;8.33;6.47;;;;;;;;;;4988751;28;20500;-90
2023/06/12 05:24:37;;;;;;;6.00;5.03;;;;;;;;;;4987652;28;20444;-90
2023/06/12 05:27:04;;;;;;;8.27;6.73;;;;;;;;;;4992663;28;20449;-89
2023/06/12 05:29:29;;;;;;;7.03;6.40;;;33.10;48.80;;;;;;4994151;28;20461;-89
2023/06/12 05:31:55;;;;;;;5.70;5.20;;;;;;;;;;4957842;28;20438;-90
2023/06/12 05:34:21;;;;;;;6.97;6.47;;;;;;;;;;4978483;28;20190;-89
2023/06/12 05:36:47;;;;;;;7.80;7.10;;;;;;;;;;4966305;28;20436;-88
2023/06/12 05:39:13;;;;;;;8.23;7.57;;;;;;;;;;4985648;28;20459;-88
2023/06/12 05:41:40;;;;;;;7.67;7.07;;;;;;;;;;4973765;28;20489;-88
2023/06/12 05:44:08;;;;;;;9.20;8.50;;;;;;;;;;4983348;28;20471;-88
2023/06/12 05:46:34;;;;;;;7.93;7.33;;;;;;;;;;4968386;28;23198;-88
2023/06/12 05:49:00;;;;;;;8.20;7.60;;;;;;;;;;4986408;28;20443;-89
2023/06/12 05:51:27;;;;;;;8.40;7.80;;;39.00;39.30;;;;;;4979376;28;20454;-88
2023/06/12 05:53:53;;;;;;;8.83;8.03;;;;;;;;;;4985410;28;20958;-87
2023/06/12 05:56:19;;;;;;;8.80;8.10;;;;;;;;;;4977597;28;20551;-87
2023/06/12 05:58:45;;;;;;;8.77;8.07;;;;;;;;;;4973325;28;21113;-88
2023/06/12 06:01:16;;;;;;;8.50;7.90;;;;;;;;;;4981545;28;20467;-86
2023/06/12 06:03:45;;;;;;;8.53;7.83;;;38.70;36.80;;;;;;5000456;28;21251;-88
2023/06/12 06:06:15;;;;;;;8.90;8.23;;;39.00;36.60;;;;;;4983897;28;20448;-88
2023/06/12 06:08:41;;;;;;;9.33;8.43;;;;;;;;;;4986194;28;20533;-87
2023/06/12 06:11:07;;;;;;;8.80;8.00;;;;;;;;;;4983421;28;20463;-89
2023/06/12 06:13:33;;;;;;;8.80;8.10;;;;;;;;;;4985991;28;20436;-87
2023/06/12 06:15:59;;;;;;;9.40;8.50;;;;;;;;;;4964707;28;20437;-87
2023/06/12 06:18:25;;;;;;;9.67;8.97;;;;;;;;;;4981948;28;20444;-89
2023/06/12 06:20:52;;;;;;;9.80;8.90;;;;;;;;;;4982093;28;20860;-89
2023/06/12 06:23:18;;;;;;;11.03;10.20;;;;;;;;;;4984253;28;20741;-87
2023/06/12 06:25:44;;;;;;;9.70;9.10;;;;;;;;;;4985516;28;20442;-85
2023/06/12 06:28:10;;;;;;;9.73;9.03;;;;;;;;;;4969300;28;20444;-89
2023/06/12 06:30:36;;;;;;;11.50;9.00;;;;;;;;;;4983353;28;20980;-86
2023/06/12 06:33:02;;;;;;;11.77;10.13;;;;;;;;;;4986469;28;20449;-88
2023/06/12 06:35:28;;;;;;;10.83;10.00;;;42.30;31.60;;;;;;4978489;28;20452;-90
2023/06/12 06:37:55;;;;;;;10.70;9.67;;;;;;;;;;4985995;28;20554;-90
2023/06/12 06:40:21;;;;;;;11.20;9.97;;;;;;;;;;4986042;28;20474;-90
2023/06/12 06:42:47;;;;;;;9.27;8.67;;;;;;;;;;4979834;28;20531;-88
2023/06/12 06:45:13;;;;;;;10.10;9.30;;;;;;;;;;4985557;28;20505;-90
2023/06/12 06:47:40;;;;;;;8.87;8.37;;;;;;;;;;4983579;28;20695;-88
2023/06/12 06:50:06;;;;;;;10.17;9.40;;;39.40;34.40;;;;;;4985633;28;20457;-90
2023/06/12 06:52:31;;;;;;;9.90;9.10;;;;;;;;;;4983644;28;20430;-90
2023/06/12 06:54:57;;;;;;;10.00;9.23;;;37.90;33.60;;;;;;4982273;28;20443;-89
2023/06/12 06:57:23;;;;;;;10.80;9.90;;;;;;;;;;4965732;28;20323;-89
2023/06/12 06:59:50;;;;;;;10.20;9.40;;;37.80;35.10;;;;;;4968101;28;20192;-88
2023/06/12 07:02:16;;;;;;;9.90;8.97;;;;;;;;;;4956303;28;20733;-90
2023/06/12 07:04:42;;;;;;;9.97;9.20;;;38.20;34.90;;;;;;4960923;28;20440;-90
2023/06/12 07:07:08;;;;;;;10.87;10.00;;;37.40;35.70;;;;;;4964511;28;20433;-89
2023/06/12 07:09:34;;;;;;;10.60;9.63;;;;;;;;;;4975847;28;20463;-89
2023/06/12 07:12:00;;;;;;;9.70;8.70;;;38.60;34.20;;;;;;4983441;28;20195;-90
2023/06/12 07:14:25;;;;;;;9.17;8.47;;;;;;;;;;4984949;28;20207;-90
2023/06/12 07:16:51;;;;;;;11.33;10.40;;;;;;;;;;4983213;28;20187;-89
2023/06/12 07:19:17;;;;;;;10.00;9.27;;;;;;;;;;4979648;28;20505;-89
2023/06/12 07:21:43;;;;;;;10.03;9.33;;;;;;;;;;4981395;28;20217;-90
2023/06/12 07:24:09;;;;;;;10.20;9.40;;;;;;;;;;4980982;28;20506;-89
2023/06/12 07:26:35;;;;;;;9.87;9.17;;;;;;;;;;4972640;28;20435;-91
2023/06/12 07:29:03;;;;;;;9.90;9.13;;;;;;;;;;4989632;28;20520;-89
2023/06/12 07:31:29;;;;;;;10.43;9.73;;;;;;;;;;4992326;28;20435;-89
2023/06/12 07:33:55;;;;;;;10.97;10.13;;;;;;;;;;4988691;28;20443;-89
2023/06/12 07:36:21;;;;;;;10.07;9.37;;;;;;;;;;4985834;28;20437;-89
2023/06/12 07:38:47;;;;;;;12.03;11.00;;;;;;;;;;4986044;28;20495;-88
2023/06/12 07:41:13;;;;;;;10.07;9.37;;;;;;;;;;4996800;28;21510;-89
2023/06/12 07:43:39;;;;;;;11.40;10.40;;;;;;;;;;5006594;28;21986;-88
2023/06/12 07:46:05;;;;;;;10.60;9.70;;;;;;;;;;5007729;28;20453;-88
2023/06/12 07:48:31;;;;;;;11.37;10.47;;;;;;;;;;5005702;28;20186;-89
2023/06/12 07:50:57;;;;;;;11.33;10.47;;;;;;;;;;4993821;28;20456;-89
2023/06/12 07:53:23;;;;;;;11.60;10.70;;;;;;;;;;4993888;28;20440;-89
2023/06/12 07:55:49;;;;;;;11.00;10.20;;;;;;;;;;4988085;28;20441;-90
2023/06/12 07:58:15;;;;;;;11.10;10.40;;;;;;;;;;4985667;28;20437;-89
2023/06/12 08:00:41;;;;;;;11.83;10.93;;;;;;;;;;4971105;28;20497;-90
2023/06/12 08:03:08;;;;;;;11.40;10.70;;;;;;;;;;4988493;28;20465;-90
2023/06/12 08:05:34;;;;;;;11.43;10.57;;;;;;;;;;4989221;28;20705;-90
2023/06/12 08:08:01;;;;;;;11.50;10.60;;;;;;;;;;4973884;28;20457;-91
2023/06/12 08:10:27;;;;;;;10.77;10.07;;;;;;;;;;4973532;28;20446;-88
2023/06/12 08:12:53;;;;;;;12.00;11.10;;;;;;;;;;4989910;28;20468;-88
2023/06/12 08:15:22;;;;;;;11.73;10.90;;;;;;;;;;4973151;28;20441;-89
2023/06/12 08:17:51;;;;;;;11.30;10.37;;;;;;;;;;4988736;28;20438;-89
2023/06/12 08:20:17;;;;;;;13.23;12.17;;;;;;;;;;4957849;28;21579;-90
2023/06/12 08:22:43;;;;;;;10.70;9.80;;;;;;;;;;4983060;28;20464;-90
2023/06/12 08:25:09;;;;;;;11.60;10.60;;;;;;;;;;4987437;28;21040;-90
2023/06/12 08:27:35;;;;;;;11.07;10.17;;;39.60;34.30;;;;;;4986294;28;20265;-90
2023/06/12 08:30:02;;;;;;;11.03;10.03;;;39.40;33.60;;;;;;4989651;28;20565;-90
2023/06/12 08:32:28;;;;;;;11.23;10.40;;;;;;;;;;4970798;28;20182;-90
2023/06/12 08:34:56;;;;;;;10.80;10.00;;;;;;;;;;4975791;28;20464;-89
2023/06/12 08:37:21;;;;;;;11.10;10.30;;;;;;;;;;4981763;28;20437;-90
2023/06/12 08:39:47;;;;;;;11.80;10.80;;;;;;;;;;4968392;28;20242;-90
2023/06/12 08:42:17;;;;;;;11.90;11.13;;;42.70;30.00;;;;;;4982581;28;20210;-90
2023/06/12 08:44:46;;;;;;;10.87;10.07;;;41.50;35.10;;;;;;4978485;28;20569;-91
2023/06/12 08:47:14;;;;;;;10.90;10.17;;;41.60;31.00;;;;;;4984700;28;21109;-91
2023/06/12 08:49:40;;;;;;;11.50;10.70;;;;;;;;;;4987323;28;20450;-90
2023/06/12 08:52:10;;;;;;;11.00;10.30;;;41.70;34.90;;;;;;4964244;28;20418;-91
2023/06/12 08:54:39;;;;;;;10.40;9.70;;;42.10;29.50;;;;;;4981422;28;20544;-89
2023/06/12 08:57:06;;;;;;;10.23;9.53;;;41.90;29.50;;;;;;4983685;28;20437;-90
2023/06/12 08:59:33;;;;;;;10.43;9.63;;;40.70;29.60;;;;;;4983724;28;20453;-89
2023/06/12 09:01:59;;;;;;;10.40;9.50;;;;;;;;;;4976107;28;20481;-89
2023/06/12 09:04:32;;;;;;;9.87;9.17;;;38.30;31.20;;;;;;4981211;28;20532;-89
2023/06/12 09:07:01;;;;;;;9.80;9.10;;;37.00;30.00;;;;;;4980464;28;20433;-89
2023/06/12 09:09:39;;;;;;;8.37;7.77;;;37.00;30.50;;;;;;4982556;28;20450;-88
2023/06/12 09:12:08;;;;;;;8.47;7.77;;;35.50;30.90;;;;;;4973262;28;20447;-89
2023/06/12 09:14:35;;;;;;;8.33;7.73;;;33.80;34.30;;;;;;4971314;28;20980;-88
2023/06/12 09:17:04;;;;;;;8.73;7.83;;;30.10;39.20;;;;;;4965763;28;20431;-88
2023/06/12 09:19:42;;;;;;;8.20;7.50;;;29.80;40.90;;;;;;4976793;28;21134;-90
2023/06/12 09:22:08;;;;;;;7.77;7.10;;;29.90;41.50;;;;;;4984503;28;21006;-88
2023/06/12 09:24:34;;;;;;;8.00;7.30;;;31.50;39.40;;;;;;4998702;28;20945;-87
2023/06/12 09:27:02;;;;;;;7.77;7.07;;;31.30;39.70;;;;;;4987524;28;20709;-87
2023/06/12 09:29:35;;;;;;;7.33;6.73;;;32.10;40.20;;;;;;4972030;28;20209;-86
2023/06/12 09:32:09;;;;;;;7.83;7.23;;;32.10;39.10;;;;;;4985958;28;20440;-87
2023/06/12 09:34:35;;;;;;;7.53;6.93;;;32.50;36.90;;;;;;4980552;28;20450;-85
2023/06/12 09:37:05;;;;;;;7.90;7.30;;;32.20;36.60;;;;;;4984001;28;20443;-86
2023/06/12 09:39:31;;;;;;;7.47;6.87;;;31.00;37.50;;;;;;4962008;28;20459;-87
2023/06/12 09:41:58;;;;;;;7.97;7.27;;;31.50;37.70;;;;;;4984636;28;20476;-86
2023/06/12 09:44:28;;;;;;;8.67;7.77;;;32.00;37.50;;;;;;4971635;28;20196;-87
2023/06/12 09:47:01;;;;;;;7.33;6.73;;;32.60;37.60;;;;;;4977393;28;20450;-88
2023/06/12 09:49:27;;;;;;;8.30;7.50;;;33.00;36.50;;;;;;4975166;28;20528;-87
2023/06/12 09:51:54;;;;;;;6.90;6.40;;;33.20;35.20;;;;;;4984007;28;20532;-87
2023/06/12 09:54:21;;;;;;;8.80;8.00;;;33.90;36.30;;;;;;4961230;28;21601;-87
2023/06/12 09:56:53;;;;;;;7.50;6.90;;;34.60;35.80;;;;;;4984937;28;20448;-86
2023/06/12 09:59:21;;;;;;;9.70;8.83;;;34.70;34.30;;;;;;4985460;28;20460;-86
2023/06/12 10:01:55;;;;;;;8.43;7.13;;;33.20;34.70;;;;;;4981707;28;20474;-88
2023/06/12 10:04:30;;;;;;;7.33;6.60;;;31.30;36.00;;;;;;4959298;28;20469;-89
2023/06/12 10:07:08;;;;;;;7.10;6.50;;;29.10;38.40;;;;;;4982387;28;20433;-88
2023/06/12 10:09:35;;;;;;;9.20;7.07;;;29.10;38.80;;;;;;4964024;28;20554;-88
2023/06/12 10:12:01;;;;;;;7.03;6.40;;;31.00;40.50;;;;;;4956077;28;20480;-88
2023/06/12 10:14:28;;;;;;;7.03;6.47;;;29.40;39.40;;;;;;4966688;28;20437;-88
2023/06/12 10:16:56;;;;;;;7.53;6.80;;;29.30;40.90;;;;;;4982120;28;20474;-88
2023/06/12 10:19:24;;;;;;;10.50;7.00;;;28.70;41.70;;;;;;4969445;28;20470;-88
2023/06/12 10:21:53;;;;;;;7.40;6.70;;;29.90;42.20;;;;;;4997557;28;20450;-89
2023/06/12 10:24:21;;;;;;;8.80;8.00;;;30.70;40.40;;;;;;4990881;28;20486;-88
2023/06/12 10:26:47;;;;;;;8.27;7.57;;;30.40;38.60;;;;;;4989073;28;20432;-89
2023/06/12 10:29:30;;;;;;;8.10;7.43;;;32.70;36.80;;;;;;4993802;28;20433;-86
2023/06/12 10:32:10;;;;;;;8.40;7.80;;;32.80;38.10;;;;;;4986306;28;20438;-87
2023/06/12 10:34:41;;;;;;;8.67;7.77;;;31.90;37.30;;;;;;4985693;28;20511;-87
2023/06/12 10:37:22;;;;;;;10.83;7.07;;;31.40;38.40;;;;;;4988064;28;20438;-89
2023/06/12 10:40:10;;;;;;;7.73;7.03;;;30.90;38.90;;;;;;4993099;28;20453;-86
2023/06/12 10:42:38;;;;;;;6.97;6.37;;;29.70;39.60;;;;;;4972036;28;21420;-89
2023/06/12 10:45:27;;;;;;;9.60;6.60;;;29.30;41.00;;;;;;4983301;28;20434;-86
2023/06/12 10:48:08;;;;;;;7.43;6.73;;;28.80;41.60;;;;;;4986318;28;20448;-88
2023/06/12 10:50:48;;;;;;;8.37;6.70;;;28.90;41.70;;;;;;4986239;28;20473;-88
2023/06/12 10:53:27;;;;;;;7.30;6.67;;;28.90;42.10;;;;;;4983662;28;20438;-88
2023/06/12 10:56:03;;;;;;;7.00;6.40;;;28.50;42.50;;;;;;4984665;28;20429;-88
2023/06/12 10:58:41;;;;;;;6.90;6.30;;;28.60;42.70;;;;;;4980709;28;20433;-87
2023/06/12 11:01:12;;;;;;;7.67;7.07;;;28.50;42.00;;;;;;4984695;28;20578;-88
2023/06/12 11:03:42;;;;;;;8.67;7.30;;;28.50;41.60;;;;;;4985795;28;20446;-88
2023/06/12 11:06:13;;;;;;;9.87;9.00;;;28.40;41.50;;;;;;4981813;28;21314;-87
2023/06/12 11:08:40;;;;;;;6.83;6.23;;;28.70;42.20;;;;;;4967839;28;20447;-87
2023/06/12 11:11:10;;;;;;;7.97;7.17;;;28.70;41.60;;;;;;4982889;28;20483;-88
2023/06/12 11:13:40;;;;;;;8.00;7.30;;;28.70;42.00;;;;;;4968716;28;20482;-88
2023/06/12 11:16:06;;;;;;;8.30;6.87;;;28.40;42.00;;;;;;4966703;28;20449;-87
2023/06/12 11:18:31;;;;;;;7.83;6.97;;;28.40;42.50;;;;;;4981503;28;20429;-87
2023/06/12 11:20:57;;;;;;;6.63;6.03;;;28.10;42.90;;;;;;4988296;28;20696;-86
2023/06/12 11:23:25;;;;;;;8.03;6.80;;;28.10;43.00;;;;;;4970114;28;20207;-87
2023/06/12 11:25:53;;;;;;;8.13;6.80;;;28.00;43.50;;;;;;4986584;28;20464;-88
2023/06/12 11:28:20;;;;;;;7.90;6.50;;;27.60;42.90;;;;;;4987035;28;20436;-87
2023/06/12 11:30:51;;;;;;;7.20;6.50;;;27.30;44.30;;;;;;4962595;28;20470;-88
2023/06/12 11:33:17;;;;;;;7.00;5.97;;;27.10;43.50;;;;;;4988497;28;20441;-87
2023/06/12 11:35:47;;;;;;;7.10;6.50;;;27.50;44.60;;;;;;4983863;28;20558;-87
2023/06/12 11:38:15;;;;;;;6.33;5.80;;;27.90;43.40;;;;;;4983888;28;20449;-87
2023/06/12 11:40:41;;;;;;;7.10;6.40;;;28.40;42.90;;;;;;4988636;28;20513;-88
2023/06/12 11:43:07;;;;;;;6.63;6.07;;;28.30;42.40;;;;;;4989825;28;20469;-87
2023/06/12 11:45:33;;;;;;;7.10;6.20;;;28.00;43.20;;;;;;4984196;28;20500;-87
2023/06/12 11:48:00;;;;;;;7.87;7.17;;;27.40;43.40;;;;;;4978931;28;20218;-87
2023/06/12 11:50:26;;;;;;;7.07;6.23;;;27.50;44.30;;;;;;4970807;28;20463;-88
2023/06/12 11:52:52;;;;;;;7.13;5.97;;;27.80;44.30;;;;;;4983470;28;20485;-89
2023/06/12 11:55:18;;;;;;;7.40;6.70;;;;;;;;;;4983066;28;20443;-89
2023/06/12 11:57:48;;;;;;;7.00;6.40;;;28.40;42.20;;;;;;4961219;28;20522;-88
2023/06/12 12:00:17;;;;;;;7.80;6.00;;;28.70;42.50;;;;;;4983127;28;20558;-85
2023/06/12 12:02:49;;;;;;;6.50;5.90;;;28.90;40.90;;;;;;4985582;28;21056;-85
2023/06/12 12:05:21;;;;;;;7.23;6.50;;;29.10;41.40;;;;;;4970287;28;20690;-87
2023/06/12 12:08:02;;;;;;;6.80;6.27;;;29.10;41.90;;;;;;4974418;28;20452;-86
2023/06/12 12:10:28;;;;;;;8.17;6.60;;;;;;;;;;4978564;28;20465;-85
2023/06/12 12:13:02;;;;;;;8.00;6.13;;;29.20;41.10;;;;;;4981721;28;20444;-85
2023/06/12 12:15:34;;;;;;;8.03;7.23;;;29.00;40.90;;;;;;4978475;28;21444;-86
2023/06/12 12:18:01;;;;;;;6.70;6.10;;;28.90;41.10;;;;;;4971102;28;20446;-85
2023/06/12 12:20:27;;;;;;;5.97;5.40;;;28.80;40.00;;;;;;4979016;28;20458;-86
2023/06/12 12:23:00;;;;;;;7.57;6.73;;;28.90;41.40;;;;;;4979800;28;20499;-85
2023/06/12 12:25:31;;;;;;;7.00;6.10;;;28.90;39.30;;;;;;4980974;28;20436;-86
2023/06/12 12:28:02;;;;;;;7.10;6.43;;;29.00;40.20;;;;;;4982236;28;20458;-86
2023/06/12 12:30:29;;;;;;;8.37;7.70;;;;;;;;;;4980976;28;20493;-86
2023/06/12 12:32:56;;;;;;;7.37;6.67;;;28.70;38.80;;;;;;4982430;28;20469;-87
2023/06/12 12:35:23;;;;;;;7.43;6.83;;;28.70;40.60;;;;;;4979842;28;20447;-88
2023/06/12 12:37:51;;;;;;;6.30;5.70;;;29.10;40.20;;;;;;4982813;28;20454;-87
2023/06/12 12:40:17;;;;;;;6.93;6.23;;;28.20;40.20;;;;;;4980314;28;21000;-89
2023/06/12 12:42:45;;;;;;;7.53;6.23;;;28.10;40.60;;;;;;4981889;28;20469;-87
2023/06/12 12:45:13;;;;;;;6.57;5.97;;;28.20;41.20;;;;;;4982643;28;21340;-85
2023/06/12 12:47:40;;;;;;;8.13;6.97;;;28.50;41.10;;;;;;4984642;28;20834;-89
2023/06/12 12:50:07;;;;;;;10.13;6.63;;;28.30;41.30;;;;;;4981830;28;20484;-89
2023/06/12 12:52:32;;;;;;;8.00;5.97;;;;;;;;;;4970372;28;20446;-88
2023/06/12 12:54:58;;;;;;;6.57;5.83;;;28.00;39.50;;;;;;4982372;28;21640;-85
2023/06/12 12:57:24;;;;;;;8.40;7.70;;;27.90;40.90;;;;;;4967527;28;20447;-86
2023/06/12 12:59:50;;;;;;;8.53;7.83;;;28.10;41.10;;;;;;5000329;28;20463;-87
2023/06/12 13:02:16;;;;;;;7.80;7.20;;;;;;;;;;4972282;28;20207;-86
2023/06/12 13:04:42;;;;;;;10.07;6.63;;;;;;;;;;4978939;28;20443;-86
2023/06/12 13:07:08;;;;;;;7.63;6.40;;;28.30;40.70;;;;;;4981225;28;20909;-89
2023/06/12 13:09:34;;;;;;;6.30;5.70;;;28.20;41.00;;;;;;4982727;28;20467;-87
2023/06/12 13:12:00;;;;;;;6.87;6.27;;;28.20;40.40;;;;;;4984836;28;20300;-89
2023/06/12 13:14:26;;;;;;;6.80;6.20;;;28.10;40.00;;;;;;4985841;28;20485;-86
2023/06/12 13:16:52;;;;;;;7.20;6.60;;;28.20;40.20;;;;;;4974047;28;20851;-87
2023/06/12 13:19:18;;;;;;;6.80;6.23;;;;;;;;;;4978009;28;20222;-87